NCAR-RAP Real-Time Weather Data

Output produced by METARs form (23 January 2018  15:44 UTC)
found at http://weather.rap.ucar.edu/surface/
 
RJOY 231000Z 28012KT 9999 FEW025 SCT060 04/M10 Q1014
RJOY 230900Z 27013G23KT 9999 FEW025 SCT060 06/M09 Q1013
RJOY 230800Z 27013KT 9999 FEW030 SCT/// 05/M05 Q1012
RJOY 230700Z 27015KT 9999 FEW025 SCT060 07/M05 Q1012
RJOY 230600Z 27016G27KT 9999 FEW025 SCT050 BKN070 07/M05 Q1012
RJOY 230500Z 31016KT 9999 FEW025 SCT050 BKN070 07/M02 Q1012
RJOY 230400Z 26018KT 9999 FEW025 SCT030 09/M02 Q1011
RJOY 230300Z 27022KT 9999 FEW020 SCT030 BKN060 09/M01 Q1010
RJOY 230200Z 27019G32KT 9999 FEW020 SCT025 09/02 Q1011
RJOY 230100Z 27015KT 9999 FEW020 SCT025 08/02 Q1011
RJOY 230000Z 25006KT 9999 FEW020 SCT030 BKN050 07/02 Q1011
RJOY 222300Z 12002KT 9999 FEW020 SCT030 BKN060 05/01 Q1010
RJOY 221000Z 11003KT 7000 -RA FEW004 SCT009 BKN015 02/M00 Q1012
RJOY 220900Z VRB02KT 7000 -RA FEW003 SCT008 BKN015 02/M00 Q1012
RJOY 220831Z 34005KT 6000 -RA BR FEW005 SCT012 BKN015 02/M00 Q1011 RMK 1ST005 3CU012 5CU015 A2987
RJOY 220800Z 34005KT 300V010 4500 -RA BR FEW004 BKN010 BKN015 03/00 Q1011
RJOY 220743Z 34006KT 4500 -RA BR FEW004 BKN010 BKN015 03/00 Q1011 RMK 1ST004 5ST010 6CU015 A2985
RJOY 220700Z 29003KT 6000 -RA BR FEW005 SCT009 BKN020 03/01 Q1010
RJOY 220600Z VRB01KT 6000 -RA BR FEW006 SCT012 BKN020 03/M00 Q1010
RJOY 220500Z 07004KT 8000 -RA FEW008 SCT015 BKN030 04/M00 Q1011
RJOY 220400Z 09009KT 9999 -RA FEW015 SCT025 BKN050 05/M02 Q1012
RJOY 220300Z 07005KT 020V110 9999 VCSH FEW025 SCT045 BKN060 06/M04 Q1013
RJOY 220200Z 02004KT 350V060 9999 FEW050 BKN070 OVC100 06/M05 Q1014
RJOY 220100Z 02006KT 350V060 9999 FEW070 BKN090 OVC110 06/M03 Q1016
RJOY 220000Z VRB01KT 9999 FEW080 BKN110 OVC130 05/M01 Q1016
RJOY 212300Z 11005KT 040V180 9999 FEW010 BKN110 OVC130 04/M01 Q1016
RJOY 211000Z 35006KT 9999 FEW050 BKN/// 08/M02 Q1020
RJOY 210900Z 03004KT 350V060 9999 FEW030 SCT040 BKN050 09/M00 Q1020
RJOY 210800Z 34007KT 9999 -SHRA FEW030 SCT040 BKN050 10/M00 Q1019
RJOY 210700Z 26009KT 9999 FEW030 BKN060 10/M01 Q1019
RJOY 210600Z 27009KT 230V300 9999 FEW030 SCT070 11/M02 Q1018
RJOY 210500Z 26009KT 210V280 9999 FEW030 10/M01 Q1019
RJOY 210400Z 27008KT 230V300 9999 FEW030 SCT070 10/M03 Q1019